createdAt,value
2017-05-23T00:01:07.544Z,36.82
2017-05-23T00:02:17.147Z,37.02
2017-05-23T00:03:27.369Z,36.72
2017-05-23T00:04:37.598Z,36.82
2017-05-23T00:08:20.201Z,36.82
2017-05-23T00:12:02.806Z,36.82
2017-05-23T00:13:12.727Z,36.92
2017-05-23T00:14:22.641Z,36.72
2017-05-23T00:15:31.948Z,36.82
2017-05-23T00:16:41.556Z,36.72
2017-05-23T00:17:51.784Z,36.72
2017-05-23T00:19:02.062Z,36.92
2017-05-23T00:20:12.289Z,36.92
2017-05-23T00:21:22.193Z,36.82
2017-05-23T00:22:32.414Z,37.12
2017-05-23T00:23:42.653Z,37.12
2017-05-23T00:24:52.106Z,37.12
2017-05-23T00:26:02.332Z,36.92
2017-05-23T00:27:12.554Z,36.92
2017-05-23T00:28:22.462Z,37.02
2017-05-23T00:29:32.686Z,37.02
2017-05-23T00:30:42.711Z,37.02
2017-05-23T00:31:52.956Z,37.12
2017-05-23T00:33:03.190Z,37.02
2017-05-23T00:34:13.491Z,37.3
2017-05-23T00:35:23.115Z,37.21
2017-05-23T00:36:33.036Z,37.21
2017-05-23T00:37:43.256Z,37.21
2017-05-23T00:38:53.183Z,37.21
2017-05-23T00:40:03.103Z,37.12
2017-05-23T00:41:12.403Z,37.3
2017-05-23T00:42:22.363Z,37.21
2017-05-23T00:43:32.292Z,37.12
2017-05-23T00:44:42.551Z,37.21
2017-05-23T00:45:52.456Z,37.12
2017-05-23T00:47:02.681Z,36.92
2017-05-23T00:48:13.057Z,36.82
2017-05-23T00:49:23.265Z,37.12
2017-05-23T00:50:33.186Z,37.02
2017-05-23T00:51:43.095Z,37.12
2017-05-23T00:52:53.000Z,37.21
2017-05-23T00:54:03.229Z,37.12
2017-05-23T00:55:13.453Z,37.21
2017-05-23T00:56:23.383Z,37.12
2017-05-23T00:57:33.601Z,37.02
2017-05-23T00:58:42.917Z,37.21
2017-05-23T00:59:52.634Z,37.1
2017-05-23T01:01:02.252Z,37.3
2017-05-23T01:02:12.228Z,37.3
2017-05-23T01:03:22.152Z,37.4
2017-05-23T01:04:32.384Z,37.21
2017-05-23T01:05:42.652Z,37.3
2017-05-23T01:06:52.879Z,37.3
2017-05-23T01:08:02.481Z,37.21
2017-05-23T01:09:12.401Z,37.3
2017-05-23T01:10:22.387Z,37.29
2017-05-23T01:11:32.302Z,37.3
2017-05-23T01:12:41.900Z,37.21
2017-05-23T01:13:52.123Z,37.21
2017-05-23T01:15:02.348Z,37.21
2017-05-23T01:16:12.569Z,37.3
2017-05-23T01:17:22.638Z,37.38
2017-05-23T01:18:32.540Z,37.38
2017-05-23T01:19:42.827Z,37.48
2017-05-23T01:20:53.039Z,37.4
2017-05-23T01:22:03.255Z,37.48
2017-05-23T01:23:13.328Z,37.38
2017-05-23T01:24:23.244Z,37.58
2017-05-23T01:25:33.164Z,37.58
2017-05-23T01:26:43.076Z,37.7
2017-05-23T01:27:52.989Z,37.7
2017-05-23T01:29:02.629Z,37.67
2017-05-23T01:30:12.853Z,37.67
2017-05-23T01:31:22.481Z,37.58
2017-05-23T01:32:32.084Z,37.58
2017-05-23T01:33:41.998Z,37.77
2017-05-23T01:34:52.372Z,37.58
2017-05-23T01:36:02.354Z,37.67
2017-05-23T01:37:12.265Z,37.58
2017-05-23T01:38:22.168Z,37.77
2017-05-23T01:39:32.378Z,37.58
2017-05-23T01:40:42.140Z,37.77
2017-05-23T01:41:52.376Z,37.77
2017-05-23T01:43:01.967Z,37.77
2017-05-23T01:44:11.900Z,37.87
2017-05-23T01:45:21.501Z,38.06
2017-05-23T01:46:31.259Z,37.67
2017-05-23T01:47:40.964Z,37.96
2017-05-23T01:48:50.885Z,37.87
2017-05-23T01:50:00.479Z,37.77
2017-05-23T01:51:10.698Z,37.77
2017-05-23T01:52:21.286Z,37.77
2017-05-23T01:53:30.913Z,37.77
2017-05-23T01:54:41.151Z,37.77
2017-05-23T01:55:51.368Z,37.77
2017-05-23T01:57:01.293Z,37.67
2017-05-23T01:58:11.378Z,37.87
2017-05-23T01:59:21.014Z,37.96
2017-05-23T02:00:31.241Z,37.96
2017-05-23T02:01:40.858Z,37.58
2017-05-23T02:02:51.091Z,37.87
2017-05-23T02:04:01.103Z,37.67
2017-05-23T02:05:10.734Z,37.77
2017-05-23T02:06:20.346Z,37.77
2017-05-23T02:07:29.656Z,37.77
2017-05-23T02:08:39.278Z,37.87
2017-05-23T02:09:49.611Z,37.96
2017-05-23T02:10:59.831Z,37.87
2017-05-23T02:12:10.050Z,37.67
2017-05-23T02:13:19.954Z,37.96
2017-05-23T02:14:29.887Z,37.87
2017-05-23T02:15:40.316Z,38.06
2017-05-23T02:16:50.542Z,37.67
2017-05-23T02:18:00.753Z,37.96
2017-05-23T02:19:10.999Z,37.77
2017-05-23T02:20:20.913Z,37.77
2017-05-23T02:21:31.574Z,37.77
2017-05-23T02:22:40.940Z,37.75
2017-05-23T02:23:50.249Z,37.77
2017-05-23T02:25:00.159Z,37.87
2017-05-23T02:26:10.087Z,37.87
2017-05-23T02:27:20.155Z,37.77
2017-05-23T02:28:30.064Z,37.65
2017-05-23T02:29:40.294Z,37.75
2017-05-23T02:30:49.976Z,37.75
2017-05-23T02:31:59.578Z,37.77
2017-05-23T02:33:09.796Z,37.96
2017-05-23T02:34:19.698Z,37.96
2017-05-23T02:35:29.599Z,37.96
2017-05-23T02:36:39.214Z,37.95
2017-05-23T02:37:49.136Z,37.85
2017-05-23T02:38:58.895Z,38.04
2017-05-23T02:40:08.800Z,38.16
2017-05-23T02:41:19.031Z,38.04
2017-05-23T02:42:28.948Z,38.04
2017-05-23T02:43:38.555Z,38.16
2017-05-23T02:44:48.562Z,37.95
2017-05-23T02:45:58.475Z,38.14
2017-05-23T02:47:08.693Z,38.06
2017-05-23T02:48:18.294Z,38.14
2017-05-23T02:49:27.905Z,38.14
2017-05-23T02:50:37.667Z,38.04
2017-05-23T02:51:47.584Z,38.14
2017-05-23T02:52:57.798Z,38.04
2017-05-23T02:54:07.410Z,38.04
2017-05-23T02:55:17.014Z,38.14
2017-05-23T02:56:27.126Z,38.23
2017-05-23T02:57:36.724Z,38.23
2017-05-23T02:58:46.330Z,38.14
2017-05-23T02:59:55.927Z,38.16
2017-05-23T03:01:06.156Z,38.16
2017-05-23T03:02:16.213Z,38.23
2017-05-23T03:03:25.815Z,38.16
2017-05-23T03:04:35.410Z,38.23
2017-05-23T03:05:45.340Z,38.33
2017-05-23T03:06:54.643Z,38.16
2017-05-23T03:08:04.901Z,38.33
2017-05-23T03:09:14.816Z,38.33
2017-05-23T03:10:25.066Z,38.43
2017-05-23T03:11:34.977Z,38.62
2017-05-23T03:12:44.903Z,38.43
2017-05-23T03:13:54.818Z,38.43
2017-05-23T03:15:04.734Z,38.43
2017-05-23T03:16:14.658Z,38.53
2017-05-23T03:17:24.269Z,38.53
2017-05-23T03:18:33.880Z,38.43
2017-05-23T03:19:44.206Z,38.43
2017-05-23T03:20:53.809Z,38.33
2017-05-23T03:22:03.719Z,38.53
2017-05-23T03:23:13.336Z,38.43
2017-05-23T03:24:23.560Z,38.33
2017-05-23T03:25:33.775Z,38.43
2017-05-23T03:26:43.991Z,38.43
2017-05-23T03:27:53.593Z,38.23
2017-05-23T03:29:03.810Z,38.33
2017-05-23T03:30:13.119Z,38.33
2017-05-23T03:31:23.030Z,38.33
2017-05-23T03:32:33.629Z,38.43
2017-05-23T03:33:43.859Z,38.23
2017-05-23T03:34:53.767Z,38.33
2017-05-23T03:36:04.009Z,38.23
2017-05-23T03:37:13.631Z,38.33
2017-05-23T03:38:23.844Z,38.14
2017-05-23T03:39:34.081Z,38.33
2017-05-23T03:40:43.997Z,38.33
2017-05-23T03:41:53.915Z,38.33
2017-05-23T03:43:04.234Z,38.33
2017-05-23T03:44:14.148Z,38.33
2017-05-23T03:45:24.084Z,38.33
2017-05-23T03:46:33.987Z,38.23
2017-05-23T03:47:44.576Z,38.43
2017-05-23T03:48:54.197Z,38.53
2017-05-23T03:50:04.477Z,38.14
2017-05-23T03:51:14.094Z,38.14
2017-05-23T03:52:24.007Z,38.53
2017-05-23T03:53:33.605Z,38.53
2017-05-23T03:54:43.829Z,38.43
2017-05-23T03:55:53.439Z,38.43
2017-05-23T03:57:03.057Z,38.23
2017-05-23T03:58:13.282Z,38.14
2017-05-23T03:59:23.216Z,38.14
2017-05-23T04:00:33.296Z,38.33
2017-05-23T04:01:42.910Z,38.62
2017-05-23T04:02:52.832Z,38.23
2017-05-23T04:04:02.770Z,38.62
2017-05-23T04:05:12.996Z,38.33
2017-05-23T04:06:22.752Z,38.33
2017-05-23T04:07:32.385Z,38.71
2017-05-23T04:08:42.000Z,38.71
2017-05-23T04:09:51.913Z,38.33
2017-05-23T04:11:01.839Z,38.43
2017-05-23T04:12:12.060Z,38.43
2017-05-23T04:13:22.271Z,38.43
2017-05-23T04:14:32.188Z,38.62
2017-05-23T04:15:41.825Z,38.53
2017-05-23T04:16:51.739Z,38.53
2017-05-23T04:18:01.814Z,38.62
2017-05-23T04:19:12.041Z,38.62
2017-05-23T04:20:21.955Z,38.62
2017-05-23T04:21:31.862Z,38.53
2017-05-23T04:22:41.483Z,38.53
2017-05-23T04:23:51.866Z,38.71
2017-05-23T04:25:01.784Z,38.53
2017-05-23T04:26:11.722Z,38.62
2017-05-23T04:27:21.646Z,38.53
2017-05-23T04:28:31.855Z,38.53
2017-05-23T04:29:41.774Z,38.62
2017-05-23T04:30:51.686Z,38.43
2017-05-23T04:32:01.617Z,38.62
2017-05-23T04:33:11.840Z,38.71
2017-05-23T04:34:21.135Z,38.43
2017-05-23T04:35:31.507Z,38.62
2017-05-23T04:36:41.735Z,38.62
2017-05-23T04:37:51.661Z,38.53
2017-05-23T04:39:01.890Z,38.53
2017-05-23T04:40:11.511Z,38.43
2017-05-23T04:41:21.739Z,38.53
2017-05-23T04:42:31.045Z,38.62
2017-05-23T04:43:40.654Z,38.53
2017-05-23T04:44:50.601Z,38.62
2017-05-23T04:46:00.556Z,38.62
2017-05-23T04:47:10.189Z,38.71
2017-05-23T04:48:19.810Z,38.53
2017-05-23T04:49:30.053Z,38.53
2017-05-23T04:50:39.977Z,38.71
2017-05-23T04:51:50.190Z,38.53
2017-05-23T04:52:59.903Z,38.43
2017-05-23T04:54:09.513Z,38.71
2017-05-23T04:55:19.775Z,38.62
2017-05-23T04:56:29.372Z,38.14
2017-05-23T04:57:39.625Z,38.43
2017-05-23T04:58:49.233Z,38.53
2017-05-23T04:59:59.157Z,38.43
2017-05-23T05:01:09.075Z,38.33
2017-05-23T05:02:19.029Z,38.53
2017-05-23T05:03:28.645Z,38.54
2017-05-23T05:04:38.730Z,38.25
2017-05-23T05:05:48.660Z,38.06
2017-05-23T05:06:58.276Z,37.87
2017-05-23T05:08:08.527Z,37.87
2017-05-23T05:09:18.467Z,37.77
2017-05-23T05:10:28.693Z,37.77
2017-05-23T05:11:38.615Z,37.87
2017-05-23T05:12:48.549Z,37.98
2017-05-23T05:13:58.783Z,37.6
2017-05-23T05:15:09.005Z,37.4
2017-05-23T05:16:18.461Z,37.3
2017-05-23T05:17:28.364Z,36.94
2017-05-23T05:18:38.288Z,37.13
2017-05-23T05:19:48.504Z,37.13
2017-05-23T05:20:58.420Z,36.65
2017-05-23T05:22:08.501Z,36.94
2017-05-23T05:23:18.115Z,36.84
2017-05-23T05:24:28.056Z,36.47
2017-05-23T05:25:37.960Z,36.47
2017-05-23T05:26:48.179Z,36.18
2017-05-23T05:27:58.392Z,35.89
2017-05-23T05:29:08.003Z,36.08
2017-05-23T05:30:17.927Z,35.91
2017-05-23T05:31:27.522Z,35.42
2017-05-23T05:32:37.133Z,35.52
2017-05-23T05:33:47.204Z,35.13
2017-05-23T05:34:57.421Z,35.35
2017-05-23T05:36:07.362Z,35.15
2017-05-23T05:37:16.976Z,35.15
2017-05-23T05:38:26.608Z,35.15
2017-05-23T05:39:36.369Z,34.77
2017-05-23T05:40:45.975Z,34.57
2017-05-23T05:41:55.577Z,34.59
2017-05-23T05:43:05.190Z,34.78
2017-05-23T05:44:14.813Z,34.3
2017-05-23T05:45:25.064Z,34.11
2017-05-23T05:46:34.975Z,34.41
2017-05-23T05:47:44.895Z,34.41
2017-05-23T05:48:54.810Z,34.61
2017-05-23T05:50:04.417Z,34.12
2017-05-23T05:51:13.714Z,34.31
2017-05-23T05:52:23.894Z,34.33
2017-05-23T05:53:33.553Z,33.94
2017-05-23T05:54:43.792Z,33.84
2017-05-23T05:55:53.701Z,33.75
2017-05-23T05:57:03.969Z,33.46
2017-05-23T05:58:13.889Z,33.94
2017-05-23T05:59:23.486Z,33.57
2017-05-23T06:00:33.703Z,33.67
2017-05-23T06:01:44.293Z,33.86
2017-05-23T06:02:54.836Z,33.67
2017-05-23T06:04:05.063Z,33.47
2017-05-23T06:05:14.663Z,33.29
2017-05-23T06:06:23.962Z,33.39
2017-05-23T06:07:33.868Z,33.39
2017-05-23T06:08:43.943Z,33.29
2017-05-23T06:09:53.875Z,33.29
2017-05-23T06:11:04.102Z,33.2
2017-05-23T06:12:14.025Z,33.39
2017-05-23T06:13:23.326Z,33.2
2017-05-23T06:14:33.987Z,33.11
2017-05-23T06:15:43.907Z,33.29
2017-05-23T06:16:53.526Z,33.31
2017-05-23T06:18:03.440Z,32.73
2017-05-23T06:19:13.370Z,32.73
2017-05-23T06:20:23.461Z,32.73
2017-05-23T06:21:33.391Z,33.02
2017-05-23T06:22:43.311Z,33.31
2017-05-23T06:23:52.923Z,33.02
2017-05-23T06:25:02.856Z,33.02
2017-05-23T06:26:12.776Z,33.12
2017-05-23T06:27:22.082Z,33.41
2017-05-23T06:28:32.005Z,32.73
2017-05-23T06:29:41.920Z,33.23
2017-05-23T06:30:52.188Z,33.04
2017-05-23T06:32:02.518Z,33.14
2017-05-23T06:33:12.748Z,33.14
2017-05-23T06:34:22.666Z,33.14
2017-05-23T06:35:32.903Z,33.31
2017-05-23T06:36:42.813Z,33.41
2017-05-23T06:37:52.578Z,33.43
2017-05-23T06:39:02.189Z,33.72
2017-05-23T06:40:12.107Z,33.22
2017-05-23T06:41:21.730Z,33.7
2017-05-23T06:42:31.389Z,33.51
2017-05-23T06:43:41.450Z,33.9
2017-05-23T06:44:51.056Z,33.7
2017-05-23T06:46:00.962Z,33.7
2017-05-23T06:47:10.869Z,33.9
2017-05-23T06:48:20.802Z,33.9
2017-05-23T06:49:30.432Z,34.19
2017-05-23T06:50:39.793Z,33.9
2017-05-23T06:51:49.713Z,33.9
2017-05-23T06:52:59.932Z,33.7
2017-05-23T06:54:09.554Z,33.43
2017-05-23T06:55:19.644Z,33.33
2017-05-23T06:56:29.252Z,32.57
2017-05-23T06:57:38.863Z,32.18
2017-05-23T06:58:48.779Z,31.61
2017-05-23T06:59:58.693Z,31.53
2017-05-23T07:01:08.606Z,30.94
2017-05-23T07:02:17.926Z,30.38
2017-05-23T07:03:27.551Z,30.68
2017-05-23T07:04:38.374Z,29.71
2017-05-23T07:05:49.579Z,29.72
2017-05-23T07:07:00.124Z,29.53
2017-05-23T07:08:09.761Z,29.44
2017-05-23T07:09:19.683Z,29.27
2017-05-23T07:10:29.617Z,28.97
2017-05-23T07:11:39.561Z,28.68
2017-05-23T07:12:49.164Z,28.69
2017-05-23T07:13:58.802Z,28.2
2017-05-23T07:15:09.040Z,28.13
2017-05-23T07:16:18.352Z,27.83
2017-05-23T07:17:28.282Z,27.26
2017-05-23T07:18:37.764Z,26.98
2017-05-23T07:19:47.408Z,26.7
2017-05-23T07:20:57.634Z,26.6
2017-05-23T07:22:07.549Z,26.22
2017-05-23T07:23:17.466Z,26.23
2017-05-23T07:24:27.389Z,26.04
2017-05-23T07:25:37.676Z,25.65
2017-05-23T07:26:47.605Z,25.56
2017-05-23T07:27:57.512Z,25.85
2017-05-23T07:29:07.431Z,25.85
2017-05-23T07:30:17.495Z,25.95
2017-05-23T07:31:27.419Z,26.05
2017-05-23T07:32:37.347Z,25.76
2017-05-23T07:33:47.594Z,25.67
2017-05-23T07:34:57.829Z,25.57
2017-05-23T07:36:07.792Z,25.57
2017-05-23T07:37:17.790Z,25.38
2017-05-23T07:38:27.721Z,25.2
2017-05-23T07:39:38.002Z,25.2
2017-05-23T07:40:47.317Z,25.29
2017-05-23T07:41:56.929Z,24.91
2017-05-23T07:43:06.238Z,24.91
2017-05-23T07:44:16.470Z,25.11
2017-05-23T07:45:26.733Z,24.53
2017-05-23T07:46:36.344Z,24.33
2017-05-23T07:47:46.119Z,24.53
2017-05-23T07:48:56.357Z,24.54
2017-05-23T07:50:06.282Z,24.43
2017-05-23T07:51:16.193Z,24.54
2017-05-23T07:52:26.114Z,24.05
2017-05-23T07:53:36.510Z,24.16
2017-05-23T07:54:46.745Z,23.77
2017-05-23T07:55:56.358Z,23.96
2017-05-23T07:57:06.330Z,23.88
2017-05-23T07:58:16.566Z,23.96
2017-05-23T07:59:26.037Z,23.86
2017-05-23T08:00:35.042Z,23.97
2017-05-23T08:01:44.663Z,23.68
2017-05-23T08:02:54.889Z,23.6
2017-05-23T08:04:04.825Z,23
2017-05-23T08:05:14.596Z,23.21
2017-05-23T08:06:24.843Z,23.02
2017-05-23T08:07:34.761Z,23.31
2017-05-23T08:08:44.376Z,23.11
2017-05-23T08:09:54.307Z,22.82
2017-05-23T08:11:04.594Z,22.93
2017-05-23T08:12:14.824Z,23.03
2017-05-23T08:13:25.078Z,22.93
2017-05-23T08:14:35.313Z,23.14
2017-05-23T08:15:44.615Z,23.03
2017-05-23T08:16:54.532Z,22.94
2017-05-23T08:18:04.158Z,23.03
2017-05-23T08:19:14.403Z,23.24
2017-05-23T08:20:24.326Z,23.24
2017-05-23T08:21:34.236Z,23.22
2017-05-23T08:22:43.529Z,23.24
2017-05-23T08:23:53.138Z,23.72
2017-05-23T08:25:02.779Z,24
2017-05-23T08:26:12.702Z,24
2017-05-23T08:27:22.624Z,24.19
2017-05-23T08:28:32.696Z,23.9
2017-05-23T08:29:42.953Z,24
2017-05-23T08:30:52.599Z,23.91
2017-05-23T08:32:02.817Z,23.61
2017-05-23T08:33:13.117Z,23.82
2017-05-23T08:34:22.740Z,23.72
2017-05-23T08:35:32.047Z,24
2017-05-23T08:36:41.970Z,24.01
2017-05-23T08:37:52.257Z,23.9
2017-05-23T08:39:01.867Z,23.9
2017-05-23T08:40:11.186Z,23.91
2017-05-23T08:41:21.119Z,23.9
2017-05-23T08:42:31.041Z,24.11
2017-05-23T08:43:40.998Z,24.4
2017-05-23T08:44:51.224Z,24.98
2017-05-23T08:46:01.296Z,25.17
2017-05-23T08:47:11.219Z,25.94
2017-05-23T08:48:21.463Z,26.42
2017-05-23T08:49:31.390Z,27.19
2017-05-23T08:50:41.620Z,27.36
2017-05-23T08:51:51.094Z,28.03
2017-05-23T08:53:01.321Z,28.22
2017-05-23T08:54:10.948Z,29.08
2017-05-23T08:55:20.563Z,29.58
2017-05-23T08:56:30.181Z,29.36
2017-05-23T08:57:40.587Z,29.84
2017-05-23T08:58:50.223Z,30.22
2017-05-23T09:00:00.447Z,30.41
2017-05-23T09:01:09.738Z,31.08
2017-05-23T09:02:19.102Z,31.16
2017-05-23T09:03:29.683Z,31.65
2017-05-23T09:04:39.357Z,31.93
2017-05-23T09:05:49.584Z,32.23
2017-05-23T09:06:59.207Z,32.6
2017-05-23T09:08:08.826Z,32.79
2017-05-23T09:09:17.682Z,32.97
2017-05-23T09:10:27.341Z,33.26
2017-05-23T09:11:37.604Z,33.54
2017-05-23T09:12:47.840Z,33.44
2017-05-23T09:13:57.158Z,34.11
2017-05-23T09:15:06.463Z,34.11
2017-05-23T09:16:16.082Z,34.5
2017-05-23T09:17:26.309Z,34.19
2017-05-23T09:18:36.533Z,34.58
2017-05-23T09:19:46.773Z,34.78
2017-05-23T09:20:56.696Z,34.56
2017-05-23T09:22:06.306Z,34.56
2017-05-23T09:23:15.700Z,34.76
2017-05-23T09:24:25.653Z,34.86
2017-05-23T09:25:35.288Z,35.13
2017-05-23T09:26:45.214Z,35.52
2017-05-23T09:27:55.185Z,35.33
2017-05-23T09:29:05.108Z,35.33
2017-05-23T09:30:15.338Z,35.41
2017-05-23T09:31:25.556Z,35.41
2017-05-23T09:32:35.638Z,35.5
2017-05-23T09:33:45.278Z,35.7
2017-05-23T09:34:55.201Z,35.89
2017-05-23T09:36:05.156Z,35.89
2017-05-23T09:37:15.077Z,35.78
2017-05-23T09:38:25.374Z,36.07
2017-05-23T09:39:34.990Z,36.26
2017-05-23T09:40:44.909Z,36.16
2017-05-23T09:41:54.532Z,36.07
2017-05-23T09:43:04.468Z,36.26
2017-05-23T09:44:14.407Z,36.54
2017-05-23T09:45:24.327Z,36.54
2017-05-23T09:46:34.544Z,36.54
2017-05-23T09:47:44.473Z,36.73
2017-05-23T09:48:54.400Z,36.73
2017-05-23T09:50:04.474Z,36.63
2017-05-23T09:51:14.115Z,36.71
2017-05-23T09:52:24.073Z,36.91
2017-05-23T09:53:34.304Z,36.91
2017-05-23T09:54:44.548Z,36.91
2017-05-23T09:55:54.318Z,37.1
2017-05-23T09:57:04.139Z,36.91
2017-05-23T09:58:14.080Z,36.91
2017-05-23T09:59:24.020Z,37.01
2017-05-23T10:00:33.939Z,36.81
2017-05-23T10:01:43.859Z,37.1
2017-05-23T10:02:54.083Z,37.01
2017-05-23T10:04:03.738Z,36.91
2017-05-23T10:05:13.664Z,37.18
2017-05-23T10:06:23.596Z,36.99
2017-05-23T10:07:33.314Z,36.99
2017-05-23T10:08:42.933Z,37.08
2017-05-23T10:09:53.161Z,37.18
2017-05-23T10:11:02.475Z,37.28
2017-05-23T10:12:12.079Z,37.18
2017-05-23T10:13:21.847Z,37.08
2017-05-23T10:14:32.086Z,37.08
2017-05-23T10:15:42.315Z,37.08
2017-05-23T10:16:52.247Z,36.99
2017-05-23T10:18:02.173Z,37.08
2017-05-23T10:19:11.784Z,37.28
2017-05-23T10:20:21.087Z,37.07
2017-05-23T10:21:31.019Z,37.35
2017-05-23T10:22:40.645Z,37.16
2017-05-23T10:23:50.569Z,37.16
2017-05-23T10:25:00.329Z,37.16
2017-05-23T10:26:10.576Z,37.35
2017-05-23T10:27:20.515Z,37.07
2017-05-23T10:28:30.133Z,37.45
2017-05-23T10:29:40.057Z,37.07
2017-05-23T10:30:49.861Z,37.26
2017-05-23T10:32:00.081Z,37.07
2017-05-23T10:33:09.691Z,37.16
2017-05-23T10:34:19.614Z,37.16
2017-05-23T10:35:29.312Z,37.16
2017-05-23T10:36:39.697Z,37.26
2017-05-23T10:37:49.921Z,37.16
2017-05-23T10:38:59.553Z,37.16
2017-05-23T10:40:09.166Z,37.07
2017-05-23T10:41:18.472Z,37.07
2017-05-23T10:42:27.926Z,37.16
2017-05-23T10:43:37.846Z,36.87
2017-05-23T10:44:48.083Z,37.07
2017-05-23T10:45:57.402Z,37.16
2017-05-23T10:47:07.326Z,37.07
2017-05-23T10:48:17.603Z,36.77
2017-05-23T10:49:27.214Z,36.87
2017-05-23T10:50:37.132Z,37.07
2017-05-23T10:51:46.515Z,37.16
2017-05-23T10:52:56.442Z,36.97
2017-05-23T10:54:06.520Z,36.77
2017-05-23T10:55:16.728Z,37.07
2017-05-23T10:56:25.415Z,36.97
2017-05-23T10:57:35.347Z,37.07
2017-05-23T10:58:45.265Z,36.97
2017-05-23T10:59:55.498Z,36.97
2017-05-23T11:01:05.115Z,36.77
2017-05-23T11:02:14.737Z,36.87
2017-05-23T11:03:24.420Z,36.87
2017-05-23T11:04:33.733Z,36.97
2017-05-23T11:05:43.489Z,36.87
2017-05-23T11:06:53.424Z,36.97
2017-05-23T11:08:03.042Z,36.97
2017-05-23T11:09:12.658Z,37.05
2017-05-23T11:10:22.576Z,36.95
2017-05-23T11:11:33.030Z,36.95
2017-05-23T11:12:43.221Z,36.66
2017-05-23T11:13:53.460Z,37.05
2017-05-23T11:15:03.747Z,36.76
2017-05-23T11:16:13.977Z,36.95
2017-05-23T11:17:23.689Z,36.66
2017-05-23T11:18:33.612Z,36.95
2017-05-23T11:19:42.930Z,36.95
2017-05-23T11:20:53.168Z,36.95
2017-05-23T11:22:03.393Z,36.66
2017-05-23T11:23:13.484Z,37.05
2017-05-23T11:24:23.423Z,36.85
2017-05-23T11:25:33.331Z,36.85
2017-05-23T11:26:43.250Z,37.05
2017-05-23T11:27:52.868Z,37.15
2017-05-23T11:29:02.187Z,37.15
2017-05-23T11:30:12.468Z,36.85
2017-05-23T11:31:22.709Z,36.95
2017-05-23T11:32:32.324Z,36.95
2017-05-23T11:33:42.551Z,36.95
2017-05-23T11:34:52.477Z,36.85
2017-05-23T11:36:02.400Z,36.85
2017-05-23T11:37:12.071Z,36.85
2017-05-23T11:38:22.003Z,36.85
2017-05-23T11:39:31.660Z,36.95
2017-05-23T11:40:41.575Z,36.76
2017-05-23T11:41:51.210Z,36.95
2017-05-23T11:43:01.140Z,36.85
2017-05-23T11:44:10.754Z,36.85
2017-05-23T11:45:20.682Z,36.85
2017-05-23T11:46:30.600Z,36.85
2017-05-23T11:47:39.906Z,36.95
2017-05-23T11:48:49.537Z,36.95
2017-05-23T11:49:59.832Z,36.76
2017-05-23T11:51:09.803Z,36.85
2017-05-23T11:52:19.796Z,36.85
2017-05-23T11:53:30.014Z,36.85
2017-05-23T11:54:40.261Z,36.85
2017-05-23T11:55:49.878Z,36.85
2017-05-23T11:56:59.189Z,36.76
2017-05-23T11:58:09.427Z,36.95
2017-05-23T11:59:19.340Z,36.85
2017-05-23T12:00:29.601Z,36.85
2017-05-23T12:01:39.526Z,36.85
2017-05-23T12:02:48.898Z,36.95
2017-05-23T12:03:58.848Z,36.76
2017-05-23T12:05:08.469Z,36.85
2017-05-23T12:06:18.706Z,36.85
2017-05-23T12:07:28.841Z,36.85
2017-05-23T12:08:39.061Z,36.76
2017-05-23T12:09:49.026Z,36.85
2017-05-23T12:10:59.050Z,36.76
2017-05-23T12:12:08.674Z,36.85
2017-05-23T12:13:18.283Z,36.85
2017-05-23T12:14:27.613Z,36.85
2017-05-23T12:15:37.532Z,36.85
2017-05-23T12:16:47.446Z,36.95
2017-05-23T12:17:57.357Z,36.85
2017-05-23T12:19:06.652Z,36.76
2017-05-23T12:20:16.895Z,36.85
2017-05-23T12:21:26.812Z,36.76
2017-05-23T12:22:36.427Z,36.76
2017-05-23T12:23:45.739Z,36.85
2017-05-23T12:24:55.373Z,36.85
2017-05-23T12:26:05.296Z,36.76
2017-05-23T12:27:15.684Z,36.85
2017-05-23T12:28:25.310Z,36.85
2017-05-23T12:29:35.533Z,36.76
2017-05-23T12:30:45.448Z,36.76
2017-05-23T12:31:55.376Z,36.76
2017-05-23T12:33:05.635Z,36.85
2017-05-23T12:34:15.269Z,36.85
2017-05-23T12:35:24.892Z,36.85
2017-05-23T12:36:35.109Z,36.85
2017-05-23T12:37:45.357Z,36.76
2017-05-23T12:38:54.678Z,36.85
2017-05-23T12:40:04.599Z,36.95
2017-05-23T12:41:14.845Z,36.76
2017-05-23T12:42:24.770Z,36.85
2017-05-23T12:43:34.391Z,36.66
2017-05-23T12:44:44.071Z,36.85
2017-05-23T12:45:53.386Z,36.66
2017-05-23T12:47:02.701Z,36.66
2017-05-23T12:48:12.708Z,36.66
2017-05-23T12:49:22.938Z,36.56
2017-05-23T12:50:32.253Z,36.66
2017-05-23T12:51:42.190Z,36.66
2017-05-23T12:52:51.807Z,36.76
2017-05-23T12:54:01.131Z,36.56
2017-05-23T12:55:10.761Z,36.56
2017-05-23T12:56:20.049Z,36.66
2017-05-23T12:57:29.036Z,36.66
2017-05-23T12:58:38.959Z,36.66
2017-05-23T12:59:48.882Z,36.66
2017-05-23T13:00:58.510Z,36.46
2017-05-23T13:02:07.823Z,36.66
2017-05-23T13:03:17.141Z,36.46
2017-05-23T13:04:27.408Z,36.56
2017-05-23T13:05:37.335Z,36.46
2017-05-23T13:06:47.584Z,36.56
2017-05-23T13:07:57.502Z,36.46
2017-05-23T13:09:07.742Z,36.36
2017-05-23T13:10:17.359Z,36.46
2017-05-23T13:11:26.986Z,36.36
2017-05-23T13:12:36.609Z,36.66
2017-05-23T13:13:46.550Z,36.66
2017-05-23T13:14:56.795Z,36.56
2017-05-23T13:16:06.716Z,36.66
2017-05-23T13:17:16.356Z,36.36
2017-05-23T13:18:26.281Z,36.46
2017-05-23T13:19:35.897Z,36.36
2017-05-23T13:20:45.833Z,36.66
2017-05-23T13:21:54.533Z,36.56
2017-05-23T13:23:04.482Z,36.46
2017-05-23T13:24:13.499Z,36.46
2017-05-23T13:25:23.435Z,36.36
2017-05-23T13:26:33.046Z,36.46
2017-05-23T13:27:43.291Z,36.46
2017-05-23T13:28:52.919Z,36.56
2017-05-23T13:30:02.864Z,36.66
2017-05-23T13:31:12.790Z,36.56
2017-05-23T13:32:22.095Z,36.54
2017-05-23T13:33:32.319Z,36.56
2017-05-23T13:34:41.943Z,36.56
2017-05-23T13:35:51.544Z,36.66
2017-05-23T13:37:01.778Z,36.54
2017-05-23T13:38:12.020Z,36.66
2017-05-23T13:39:22.254Z,36.56
2017-05-23T13:40:32.243Z,36.56
2017-05-23T13:41:42.168Z,36.36
2017-05-23T13:42:52.123Z,36.36
2017-05-23T13:44:02.055Z,36.66
2017-05-23T13:45:11.995Z,36.18
2017-05-23T13:46:21.299Z,36.18
2017-05-23T13:47:30.920Z,36.56
2017-05-23T13:48:40.541Z,36.66
2017-05-23T13:49:49.840Z,36.56
2017-05-23T13:50:59.458Z,36.56
2017-05-23T13:52:09.091Z,36.56
2017-05-23T13:53:18.715Z,36.66
2017-05-23T13:54:28.321Z,36.46
2017-05-23T13:55:38.569Z,36.46
2017-05-23T13:56:47.888Z,36.76
2017-05-23T13:57:57.502Z,36.66
2017-05-23T13:59:07.449Z,36.56
2017-05-23T14:00:17.675Z,36.56
2017-05-23T14:01:27.290Z,36.56
2017-05-23T14:02:36.604Z,36.66
2017-05-23T14:03:46.830Z,36.66
2017-05-23T14:04:56.432Z,36.46
2017-05-23T14:06:06.043Z,36.36
2017-05-23T14:07:15.350Z,36.76
2017-05-23T14:08:25.275Z,36.66
2017-05-23T14:09:34.582Z,36.66
2017-05-23T14:10:44.504Z,36.46
2017-05-23T14:11:54.203Z,36.56
2017-05-23T14:13:04.167Z,36.54
2017-05-23T14:14:14.104Z,36.76
2017-05-23T14:15:23.726Z,36.56
2017-05-23T14:16:33.945Z,36.46
2017-05-23T14:17:43.880Z,36.66
2017-05-23T14:18:53.872Z,36.64
2017-05-23T14:20:04.108Z,36.56
2017-05-23T14:21:13.110Z,36.46
2017-05-23T14:22:23.046Z,36.66
2017-05-23T14:23:33.275Z,36.46
2017-05-23T14:24:42.915Z,36.46
2017-05-23T14:25:52.532Z,36.66
2017-05-23T14:27:01.836Z,36.46
2017-05-23T14:28:12.082Z,36.46
2017-05-23T14:29:21.987Z,36.46
2017-05-23T14:30:31.908Z,36.56
2017-05-23T14:31:40.905Z,36.66
2017-05-23T14:32:50.516Z,36.56
2017-05-23T14:34:00.452Z,36.54
2017-05-23T14:35:10.697Z,36.66
2017-05-23T14:36:20.623Z,36.66
2017-05-23T14:37:30.578Z,36.54
2017-05-23T14:38:40.210Z,36.76
2017-05-23T14:39:49.824Z,36.83
2017-05-23T14:40:59.130Z,36.83
2017-05-23T14:42:08.740Z,36.93
2017-05-23T14:43:18.655Z,36.83
2017-05-23T14:44:28.892Z,36.93
2017-05-23T14:45:38.196Z,36.74
2017-05-23T14:46:48.137Z,36.93
2017-05-23T14:47:57.744Z,36.83
2017-05-23T14:49:07.666Z,36.93
2017-05-23T14:50:17.046Z,36.93
2017-05-23T14:51:26.982Z,36.74
2017-05-23T14:52:36.909Z,36.64
2017-05-23T14:53:45.915Z,36.64
2017-05-23T14:54:56.152Z,36.66
2017-05-23T14:56:06.388Z,36.66
2017-05-23T14:57:16.003Z,36.66
2017-05-23T14:58:25.924Z,36.56
2017-05-23T14:59:35.239Z,36.66
2017-05-23T15:00:45.184Z,36.66
2017-05-23T15:01:54.496Z,36.56
2017-05-23T15:03:04.727Z,36.46
2017-05-23T15:04:14.331Z,36.66
2017-05-23T15:05:24.559Z,36.44
2017-05-23T15:06:34.167Z,36.56
2017-05-23T15:07:44.419Z,36.56